sensor_id;sensor_type;location;lat;lon;timestamp;P1;durP1;ratioP1;P2;durP2;ratioP2
35699;SDS011;21818;51.078;12.108;2022-10-31T00:02:07;8.02;;;4.43;;
35699;SDS011;21818;51.078;12.108;2022-10-31T00:04:33;10.80;;;4.40;;
35699;SDS011;21818;51.078;12.108;2022-10-31T00:06:58;8.23;;;4.22;;
35699;SDS011;21818;51.078;12.108;2022-10-31T00:09:24;11.57;;;4.70;;
35699;SDS011;21818;51.078;12.108;2022-10-31T00:11:50;18.33;;;5.32;;
35699;SDS011;21818;51.078;12.108;2022-10-31T00:14:15;10.82;;;4.30;;
35699;SDS011;21818;51.078;12.108;2022-10-31T00:16:41;11.20;;;4.50;;
35699;SDS011;21818;51.078;12.108;2022-10-31T00:19:07;8.70;;;3.65;;
35699;SDS011;21818;51.078;12.108;2022-10-31T00:21:33;7.28;;;3.70;;
35699;SDS011;21818;51.078;12.108;2022-10-31T00:23:59;8.48;;;4.13;;
35699;SDS011;21818;51.078;12.108;2022-10-31T00:26:26;7.18;;;3.97;;
35699;SDS011;21818;51.078;12.108;2022-10-31T00:28:53;11.38;;;4.50;;
35699;SDS011;21818;51.078;12.108;2022-10-31T00:31:18;7.88;;;3.60;;
35699;SDS011;21818;51.078;12.108;2022-10-31T00:33:44;12.82;;;3.75;;
35699;SDS011;21818;51.078;12.108;2022-10-31T00:36:12;9.98;;;3.40;;
35699;SDS011;21818;51.078;12.108;2022-10-31T00:38:40;10.75;;;4.05;;
35699;SDS011;21818;51.078;12.108;2022-10-31T00:41:06;6.68;;;3.35;;
35699;SDS011;21818;51.078;12.108;2022-10-31T00:43:32;11.25;;;3.92;;
35699;SDS011;21818;51.078;12.108;2022-10-31T00:45:58;10.50;;;3.95;;
35699;SDS011;21818;51.078;12.108;2022-10-31T00:48:23;11.75;;;3.35;;
35699;SDS011;21818;51.078;12.108;2022-10-31T00:50:49;7.25;;;3.45;;
35699;SDS011;21818;51.078;12.108;2022-10-31T00:53:14;7.95;;;4.05;;
35699;SDS011;21818;51.078;12.108;2022-10-31T00:55:40;11.52;;;3.42;;
35699;SDS011;21818;51.078;12.108;2022-10-31T00:58:06;8.43;;;3.63;;
35699;SDS011;21818;51.078;12.108;2022-10-31T01:00:31;7.85;;;4.07;;
35699;SDS011;21818;51.078;12.108;2022-10-31T01:02:57;9.43;;;3.88;;
35699;SDS011;21818;51.078;12.108;2022-10-31T01:05:23;8.15;;;4.13;;
35699;SDS011;21818;51.078;12.108;2022-10-31T01:07:48;7.30;;;3.47;;
35699;SDS011;21818;51.078;12.108;2022-10-31T01:10:14;10.57;;;3.95;;
35699;SDS011;21818;51.078;12.108;2022-10-31T01:12:40;7.88;;;3.70;;
35699;SDS011;21818;51.078;12.108;2022-10-31T01:15:07;9.30;;;4.40;;
35699;SDS011;21818;51.078;12.108;2022-10-31T01:17:34;7.22;;;3.75;;
35699;SDS011;21818;51.078;12.108;2022-10-31T01:20:00;4.10;;;3.00;;
35699;SDS011;21818;51.078;12.108;2022-10-31T01:22:25;6.28;;;3.60;;
35699;SDS011;21818;51.078;12.108;2022-10-31T01:24:51;7.43;;;3.42;;
35699;SDS011;21818;51.078;12.108;2022-10-31T01:27:17;9.73;;;3.33;;
35699;SDS011;21818;51.078;12.108;2022-10-31T01:29:42;7.38;;;3.58;;
35699;SDS011;21818;51.078;12.108;2022-10-31T01:32:08;11.45;;;4.07;;
35699;SDS011;21818;51.078;12.108;2022-10-31T01:34:33;6.40;;;3.22;;
35699;SDS011;21818;51.078;12.108;2022-10-31T01:36:59;6.25;;;3.33;;
35699;SDS011;21818;51.078;12.108;2022-10-31T01:39:25;10.15;;;3.72;;
35699;SDS011;21818;51.078;12.108;2022-10-31T01:41:51;9.57;;;3.25;;
35699;SDS011;21818;51.078;12.108;2022-10-31T01:46:55;6.47;;;3.08;;
35699;SDS011;21818;51.078;12.108;2022-10-31T01:49:30;9.40;;;3.53;;
35699;SDS011;21818;51.078;12.108;2022-10-31T01:54:36;4.85;;;3.30;;
35699;SDS011;21818;51.078;12.108;2022-10-31T01:57:04;8.30;;;3.07;;
35699;SDS011;21818;51.078;12.108;2022-10-31T01:59:34;10.75;;;3.85;;
35699;SDS011;21818;51.078;12.108;2022-10-31T02:02:04;5.93;;;2.80;;
35699;SDS011;21818;51.078;12.108;2022-10-31T02:04:31;6.78;;;2.80;;
35699;SDS011;21818;51.078;12.108;2022-10-31T02:07:41;8.98;;;3.03;;
35699;SDS011;21818;51.078;12.108;2022-10-31T02:09:55;6.80;;;3.75;;
35699;SDS011;21818;51.078;12.108;2022-10-31T02:12:22;7.30;;;3.10;;
35699;SDS011;21818;51.078;12.108;2022-10-31T02:14:49;6.43;;;3.17;;
35699;SDS011;21818;51.078;12.108;2022-10-31T02:17:15;9.23;;;3.38;;
35699;SDS011;21818;51.078;12.108;2022-10-31T02:19:47;9.73;;;4.13;;
35699;SDS011;21818;51.078;12.108;2022-10-31T02:22:29;10.38;;;3.08;;
35699;SDS011;21818;51.078;12.108;2022-10-31T02:27:59;7.40;;;3.80;;
35699;SDS011;21818;51.078;12.108;2022-10-31T02:33:14;9.35;;;3.47;;
35699;SDS011;21818;51.078;12.108;2022-10-31T02:35:58;9.48;;;3.20;;
35699;SDS011;21818;51.078;12.108;2022-10-31T02:41:10;8.85;;;3.45;;
35699;SDS011;21818;51.078;12.108;2022-10-31T02:52:31;6.95;;;3.03;;
35699;SDS011;21818;51.078;12.108;2022-10-31T02:54:57;8.57;;;2.80;;
35699;SDS011;21818;51.078;12.108;2022-10-31T02:57:30;7.85;;;3.35;;
35699;SDS011;21818;51.078;12.108;2022-10-31T03:00:04;7.30;;;4.18;;
35699;SDS011;21818;51.078;12.108;2022-10-31T03:07:53;5.50;;;2.47;;
35699;SDS011;21818;51.078;12.108;2022-10-31T03:13:09;7.57;;;3.30;;
35699;SDS011;21818;51.078;12.108;2022-10-31T03:15:43;7.05;;;3.40;;
35699;SDS011;21818;51.078;12.108;2022-10-31T03:18:14;9.43;;;3.38;;
35699;SDS011;21818;51.078;12.108;2022-10-31T03:20:41;7.30;;;3.08;;
35699;SDS011;21818;51.078;12.108;2022-10-31T03:23:13;9.05;;;3.65;;
35699;SDS011;21818;51.078;12.108;2022-10-31T03:25:41;10.63;;;3.55;;
35699;SDS011;21818;51.078;12.108;2022-10-31T03:28:08;11.18;;;3.40;;
35699;SDS011;21818;51.078;12.108;2022-10-31T03:30:37;6.63;;;3.03;;
35699;SDS011;21818;51.078;12.108;2022-10-31T03:33:07;8.40;;;3.55;;
35699;SDS011;21818;51.078;12.108;2022-10-31T03:35:36;9.63;;;3.35;;
35699;SDS011;21818;51.078;12.108;2022-10-31T03:38:06;7.30;;;3.40;;
35699;SDS011;21818;51.078;12.108;2022-10-31T03:40:32;10.23;;;4.35;;
35699;SDS011;21818;51.078;12.108;2022-10-31T03:43:03;13.32;;;4.00;;
35699;SDS011;21818;51.078;12.108;2022-10-31T03:45:33;13.65;;;3.58;;
35699;SDS011;21818;51.078;12.108;2022-10-31T03:48:04;12.00;;;3.30;;
35699;SDS011;21818;51.078;12.108;2022-10-31T03:50:33;6.47;;;3.13;;
35699;SDS011;21818;51.078;12.108;2022-10-31T03:56:16;8.35;;;3.13;;
35699;SDS011;21818;51.078;12.108;2022-10-31T03:58:48;6.65;;;3.28;;
35699;SDS011;21818;51.078;12.108;2022-10-31T04:01:34;7.55;;;3.90;;
35699;SDS011;21818;51.078;12.108;2022-10-31T04:04:03;6.57;;;3.13;;
35699;SDS011;21818;51.078;12.108;2022-10-31T04:06:30;14.80;;;4.20;;
35699;SDS011;21818;51.078;12.108;2022-10-31T04:08:59;12.55;;;4.03;;
35699;SDS011;21818;51.078;12.108;2022-10-31T04:11:29;8.45;;;3.42;;
35699;SDS011;21818;51.078;12.108;2022-10-31T04:13:57;6.35;;;3.33;;
35699;SDS011;21818;51.078;12.108;2022-10-31T04:16:25;10.63;;;3.53;;
35699;SDS011;21818;51.078;12.108;2022-10-31T04:18:51;8.57;;;3.78;;
35699;SDS011;21818;51.078;12.108;2022-10-31T04:21:17;5.65;;;3.00;;
35699;SDS011;21818;51.078;12.108;2022-10-31T04:23:43;7.13;;;3.42;;
35699;SDS011;21818;51.078;12.108;2022-10-31T04:26:10;13.20;;;3.22;;
35699;SDS011;21818;51.078;12.108;2022-10-31T04:28:37;12.52;;;3.85;;
35699;SDS011;21818;51.078;12.108;2022-10-31T04:31:02;7.65;;;3.40;;
35699;SDS011;21818;51.078;12.108;2022-10-31T04:33:28;9.13;;;4.03;;
35699;SDS011;21818;51.078;12.108;2022-10-31T04:35:54;7.93;;;3.80;;
35699;SDS011;21818;51.078;12.108;2022-10-31T04:38:19;9.43;;;3.90;;
35699;SDS011;21818;51.078;12.108;2022-10-31T04:40:45;8.77;;;3.28;;
35699;SDS011;21818;51.078;12.108;2022-10-31T04:43:11;15.07;;;5.57;;
35699;SDS011;21818;51.078;12.108;2022-10-31T04:45:36;10.60;;;3.38;;
35699;SDS011;21818;51.078;12.108;2022-10-31T04:48:02;10.60;;;4.80;;
35699;SDS011;21818;51.078;12.108;2022-10-31T04:50:28;10.20;;;3.60;;
35699;SDS011;21818;51.078;12.108;2022-10-31T04:52:54;11.35;;;4.35;;
35699;SDS011;21818;51.078;12.108;2022-10-31T04:55:19;6.13;;;3.17;;
35699;SDS011;21818;51.078;12.108;2022-10-31T04:57:46;5.07;;;2.90;;
35699;SDS011;21818;51.078;12.108;2022-10-31T05:00:14;7.70;;;3.55;;
35699;SDS011;21818;51.078;12.108;2022-10-31T05:02:42;9.13;;;3.42;;
35699;SDS011;21818;51.078;12.108;2022-10-31T05:05:09;12.48;;;4.10;;
35699;SDS011;21818;51.078;12.108;2022-10-31T05:07:38;7.38;;;3.42;;
35699;SDS011;21818;51.078;12.108;2022-10-31T05:10:05;11.77;;;3.60;;
35699;SDS011;21818;51.078;12.108;2022-10-31T05:12:31;9.48;;;3.47;;
35699;SDS011;21818;51.078;12.108;2022-10-31T05:14:56;11.35;;;3.85;;
35699;SDS011;21818;51.078;12.108;2022-10-31T05:17:22;10.30;;;3.75;;
35699;SDS011;21818;51.078;12.108;2022-10-31T05:19:48;9.35;;;3.50;;
35699;SDS011;21818;51.078;12.108;2022-10-31T05:22:13;10.32;;;3.38;;
35699;SDS011;21818;51.078;12.108;2022-10-31T05:24:39;11.35;;;3.17;;
35699;SDS011;21818;51.078;12.108;2022-10-31T05:27:04;11.13;;;4.10;;
35699;SDS011;21818;51.078;12.108;2022-10-31T05:29:30;8.90;;;3.50;;
35699;SDS011;21818;51.078;12.108;2022-10-31T05:31:58;13.02;;;3.78;;
35699;SDS011;21818;51.078;12.108;2022-10-31T05:34:24;6.65;;;3.45;;
35699;SDS011;21818;51.078;12.108;2022-10-31T05:36:49;8.70;;;4.07;;
35699;SDS011;21818;51.078;12.108;2022-10-31T05:39:15;8.93;;;3.17;;
35699;SDS011;21818;51.078;12.108;2022-10-31T05:41:40;9.27;;;4.00;;
35699;SDS011;21818;51.078;12.108;2022-10-31T05:44:06;7.47;;;3.50;;
35699;SDS011;21818;51.078;12.108;2022-10-31T05:46:32;6.97;;;3.55;;
35699;SDS011;21818;51.078;12.108;2022-10-31T05:48:57;9.20;;;3.88;;
35699;SDS011;21818;51.078;12.108;2022-10-31T05:51:23;8.15;;;3.58;;
35699;SDS011;21818;51.078;12.108;2022-10-31T05:53:48;9.23;;;4.03;;
35699;SDS011;21818;51.078;12.108;2022-10-31T05:56:14;6.82;;;2.92;;
35699;SDS011;21818;51.078;12.108;2022-10-31T05:58:39;10.55;;;3.63;;
35699;SDS011;21818;51.078;12.108;2022-10-31T06:01:05;8.95;;;4.07;;
35699;SDS011;21818;51.078;12.108;2022-10-31T06:03:31;8.07;;;3.60;;
35699;SDS011;21818;51.078;12.108;2022-10-31T06:05:56;8.40;;;3.55;;
35699;SDS011;21818;51.078;12.108;2022-10-31T06:08:22;8.48;;;3.15;;
35699;SDS011;21818;51.078;12.108;2022-10-31T06:10:47;8.27;;;3.53;;
35699;SDS011;21818;51.078;12.108;2022-10-31T06:13:13;6.47;;;3.40;;
35699;SDS011;21818;51.078;12.108;2022-10-31T06:15:39;5.22;;;3.35;;
35699;SDS011;21818;51.078;12.108;2022-10-31T06:18:06;13.90;;;4.72;;
35699;SDS011;21818;51.078;12.108;2022-10-31T06:20:33;9.95;;;3.40;;
35699;SDS011;21818;51.078;12.108;2022-10-31T06:22:58;7.97;;;3.60;;
35699;SDS011;21818;51.078;12.108;2022-10-31T06:25:25;13.25;;;3.70;;
35699;SDS011;21818;51.078;12.108;2022-10-31T06:27:50;9.20;;;3.65;;
35699;SDS011;21818;51.078;12.108;2022-10-31T06:30:16;10.98;;;3.38;;
35699;SDS011;21818;51.078;12.108;2022-10-31T06:32:42;7.30;;;3.25;;
35699;SDS011;21818;51.078;12.108;2022-10-31T06:35:07;10.75;;;3.65;;
35699;SDS011;21818;51.078;12.108;2022-10-31T06:37:33;10.65;;;3.80;;
35699;SDS011;21818;51.078;12.108;2022-10-31T06:39:59;8.15;;;3.30;;
35699;SDS011;21818;51.078;12.108;2022-10-31T06:42:24;9.93;;;3.90;;
35699;SDS011;21818;51.078;12.108;2022-10-31T06:44:50;9.88;;;3.53;;
35699;SDS011;21818;51.078;12.108;2022-10-31T06:47:15;9.38;;;3.53;;
35699;SDS011;21818;51.078;12.108;2022-10-31T06:49:41;4.90;;;3.15;;
35699;SDS011;21818;51.078;12.108;2022-10-31T06:52:06;8.68;;;3.30;;
35699;SDS011;21818;51.078;12.108;2022-10-31T06:54:32;8.77;;;3.60;;
35699;SDS011;21818;51.078;12.108;2022-10-31T06:56:58;8.00;;;3.53;;
35699;SDS011;21818;51.078;12.108;2022-10-31T06:59:23;7.68;;;3.38;;
35699;SDS011;21818;51.078;12.108;2022-10-31T07:01:49;6.13;;;3.25;;
35699;SDS011;21818;51.078;12.108;2022-10-31T07:04:15;9.07;;;3.58;;
35699;SDS011;21818;51.078;12.108;2022-10-31T07:06:40;7.70;;;4.32;;
35699;SDS011;21818;51.078;12.108;2022-10-31T07:09:06;11.23;;;3.78;;
35699;SDS011;21818;51.078;12.108;2022-10-31T07:11:32;9.35;;;4.00;;
35699;SDS011;21818;51.078;12.108;2022-10-31T07:13:58;10.52;;;3.55;;
35699;SDS011;21818;51.078;12.108;2022-10-31T07:16:23;11.93;;;3.50;;
35699;SDS011;21818;51.078;12.108;2022-10-31T07:18:49;15.25;;;5.38;;
35699;SDS011;21818;51.078;12.108;2022-10-31T07:21:15;7.78;;;3.42;;
35699;SDS011;21818;51.078;12.108;2022-10-31T07:23:40;11.07;;;4.15;;
35699;SDS011;21818;51.078;12.108;2022-10-31T07:26:07;12.70;;;4.28;;
35699;SDS011;21818;51.078;12.108;2022-10-31T07:28:34;7.70;;;3.80;;
35699;SDS011;21818;51.078;12.108;2022-10-31T07:30:59;9.32;;;3.33;;
35699;SDS011;21818;51.078;12.108;2022-10-31T07:33:25;10.18;;;3.47;;
35699;SDS011;21818;51.078;12.108;2022-10-31T07:35:51;14.38;;;4.03;;
35699;SDS011;21818;51.078;12.108;2022-10-31T07:38:17;13.07;;;3.65;;
35699;SDS011;21818;51.078;12.108;2022-10-31T07:40:43;7.85;;;3.55;;
35699;SDS011;21818;51.078;12.108;2022-10-31T07:43:10;8.27;;;3.58;;
35699;SDS011;21818;51.078;12.108;2022-10-31T07:45:37;12.20;;;3.70;;
35699;SDS011;21818;51.078;12.108;2022-10-31T07:48:04;7.35;;;3.40;;
35699;SDS011;21818;51.078;12.108;2022-10-31T07:50:30;9.23;;;3.75;;
35699;SDS011;21818;51.078;12.108;2022-10-31T07:53:03;12.15;;;3.63;;
35699;SDS011;21818;51.078;12.108;2022-10-31T07:57:56;11.20;;;3.45;;
35699;SDS011;21818;51.078;12.108;2022-10-31T08:00:23;7.93;;;3.22;;
35699;SDS011;21818;51.078;12.108;2022-10-31T08:02:55;10.95;;;3.97;;
35699;SDS011;21818;51.078;12.108;2022-10-31T08:05:40;12.00;;;4.63;;
35699;SDS011;21818;51.078;12.108;2022-10-31T08:08:07;10.98;;;3.53;;
35699;SDS011;21818;51.078;12.108;2022-10-31T08:10:33;14.02;;;4.40;;
35699;SDS011;21818;51.078;12.108;2022-10-31T08:13:01;6.25;;;3.15;;
35699;SDS011;21818;51.078;12.108;2022-10-31T08:15:36;5.72;;;3.45;;
35699;SDS011;21818;51.078;12.108;2022-10-31T08:18:05;10.07;;;3.45;;
35699;SDS011;21818;51.078;12.108;2022-10-31T08:20:31;12.70;;;4.22;;
35699;SDS011;21818;51.078;12.108;2022-10-31T08:22:58;11.98;;;4.05;;
35699;SDS011;21818;51.078;12.108;2022-10-31T08:25:25;7.95;;;3.88;;
35699;SDS011;21818;51.078;12.108;2022-10-31T08:27:52;11.30;;;3.95;;
35699;SDS011;21818;51.078;12.108;2022-10-31T08:30:22;7.32;;;3.35;;
35699;SDS011;21818;51.078;12.108;2022-10-31T08:35:33;7.30;;;4.03;;
35699;SDS011;21818;51.078;12.108;2022-10-31T08:37:58;11.52;;;3.78;;
35699;SDS011;21818;51.078;12.108;2022-10-31T08:40:25;8.38;;;3.50;;
35699;SDS011;21818;51.078;12.108;2022-10-31T08:43:05;9.30;;;3.70;;
35699;SDS011;21818;51.078;12.108;2022-10-31T08:45:34;9.10;;;3.70;;
35699;SDS011;21818;51.078;12.108;2022-10-31T08:48:00;7.82;;;3.85;;
35699;SDS011;21818;51.078;12.108;2022-10-31T08:50:27;6.05;;;3.35;;
35699;SDS011;21818;51.078;12.108;2022-10-31T08:52:59;9.48;;;3.90;;
35699;SDS011;21818;51.078;12.108;2022-10-31T08:55:29;6.95;;;3.67;;
35699;SDS011;21818;51.078;12.108;2022-10-31T08:57:55;9.80;;;3.72;;
35699;SDS011;21818;51.078;12.108;2022-10-31T09:00:21;8.20;;;3.92;;
35699;SDS011;21818;51.078;12.108;2022-10-31T09:02:47;8.25;;;4.15;;
35699;SDS011;21818;51.078;12.108;2022-10-31T09:05:12;7.50;;;3.25;;
35699;SDS011;21818;51.078;12.108;2022-10-31T09:07:38;7.15;;;3.63;;
35699;SDS011;21818;51.078;12.108;2022-10-31T09:10:03;7.82;;;3.50;;
35699;SDS011;21818;51.078;12.108;2022-10-31T09:12:29;9.13;;;3.85;;
35699;SDS011;21818;51.078;12.108;2022-10-31T09:14:55;9.52;;;4.10;;
35699;SDS011;21818;51.078;12.108;2022-10-31T09:17:20;6.88;;;3.42;;
35699;SDS011;21818;51.078;12.108;2022-10-31T09:19:46;8.25;;;3.60;;
35699;SDS011;21818;51.078;12.108;2022-10-31T09:22:12;10.98;;;4.07;;
35699;SDS011;21818;51.078;12.108;2022-10-31T09:24:37;8.45;;;3.30;;
35699;SDS011;21818;51.078;12.108;2022-10-31T09:27:03;9.40;;;4.47;;
35699;SDS011;21818;51.078;12.108;2022-10-31T09:29:28;13.07;;;4.45;;
35699;SDS011;21818;51.078;12.108;2022-10-31T09:31:55;8.68;;;4.00;;
35699;SDS011;21818;51.078;12.108;2022-10-31T09:34:21;15.43;;;5.72;;
35699;SDS011;21818;51.078;12.108;2022-10-31T09:36:47;9.10;;;4.88;;
35699;SDS011;21818;51.078;12.108;2022-10-31T09:39:13;8.52;;;4.60;;
35699;SDS011;21818;51.078;12.108;2022-10-31T09:46:59;11.32;;;4.00;;
35699;SDS011;21818;51.078;12.108;2022-10-31T09:52:38;13.35;;;5.38;;
35699;SDS011;21818;51.078;12.108;2022-10-31T09:55:13;11.65;;;5.20;;
35699;SDS011;21818;51.078;12.108;2022-10-31T09:57:43;9.82;;;4.18;;
35699;SDS011;21818;51.078;12.108;2022-10-31T10:00:17;8.07;;;4.47;;
35699;SDS011;21818;51.078;12.108;2022-10-31T10:02:50;15.88;;;4.70;;
35699;SDS011;21818;51.078;12.108;2022-10-31T10:05:21;10.80;;;5.15;;
35699;SDS011;21818;51.078;12.108;2022-10-31T10:08:00;10.00;;;4.80;;
35699;SDS011;21818;51.078;12.108;2022-10-31T10:19:07;11.20;;;4.80;;
35699;SDS011;21818;51.078;12.108;2022-10-31T10:21:37;10.40;;;5.70;;
35699;SDS011;21818;51.078;12.108;2022-10-31T10:26:54;7.53;;;4.32;;
35699;SDS011;21818;51.078;12.108;2022-10-31T10:32:24;15.95;;;6.10;;
35699;SDS011;21818;51.078;12.108;2022-10-31T10:35:27;14.80;;;6.53;;
35699;SDS011;21818;51.078;12.108;2022-10-31T10:37:49;15.05;;;6.65;;
35699;SDS011;21818;51.078;12.108;2022-10-31T10:40:23;16.50;;;7.75;;
35699;SDS011;21818;51.078;12.108;2022-10-31T10:42:56;15.35;;;7.10;;
35699;SDS011;21818;51.078;12.108;2022-10-31T10:48:43;15.25;;;6.97;;
35699;SDS011;21818;51.078;12.108;2022-10-31T10:51:37;11.40;;;6.18;;
35699;SDS011;21818;51.078;12.108;2022-10-31T10:54:09;17.05;;;6.70;;
35699;SDS011;21818;51.078;12.108;2022-10-31T10:59:22;15.05;;;6.50;;
35699;SDS011;21818;51.078;12.108;2022-10-31T11:01:48;11.93;;;5.57;;
35699;SDS011;21818;51.078;12.108;2022-10-31T11:04:24;10.75;;;6.00;;
35699;SDS011;21818;51.078;12.108;2022-10-31T11:06:59;9.18;;;4.10;;
35699;SDS011;21818;51.078;12.108;2022-10-31T11:09:27;10.07;;;5.82;;
35699;SDS011;21818;51.078;12.108;2022-10-31T11:11:53;7.25;;;4.63;;
35699;SDS011;21818;51.078;12.108;2022-10-31T11:14:20;11.98;;;5.07;;
35699;SDS011;21818;51.078;12.108;2022-10-31T11:16:49;11.30;;;3.75;;
35699;SDS011;21818;51.078;12.108;2022-10-31T11:21:50;8.77;;;3.58;;
35699;SDS011;21818;51.078;12.108;2022-10-31T11:24:16;13.68;;;3.95;;
35699;SDS011;21818;51.078;12.108;2022-10-31T11:26:45;8.35;;;4.28;;
35699;SDS011;21818;51.078;12.108;2022-10-31T11:29:19;7.55;;;3.28;;
35699;SDS011;21818;51.078;12.108;2022-10-31T11:31:51;8.15;;;3.90;;
35699;SDS011;21818;51.078;12.108;2022-10-31T11:34:22;6.30;;;3.53;;
35699;SDS011;21818;51.078;12.108;2022-10-31T11:40:02;7.88;;;3.50;;
35699;SDS011;21818;51.078;12.108;2022-10-31T11:42:37;8.45;;;4.25;;
35699;SDS011;21818;51.078;12.108;2022-10-31T11:45:07;9.48;;;4.53;;
35699;SDS011;21818;51.078;12.108;2022-10-31T11:47:45;10.95;;;3.88;;
35699;SDS011;21818;51.078;12.108;2022-10-31T11:50:20;9.87;;;4.20;;
35699;SDS011;21818;51.078;12.108;2022-10-31T11:52:47;12.93;;;4.40;;
35699;SDS011;21818;51.078;12.108;2022-10-31T11:55:16;9.63;;;4.50;;
35699;SDS011;21818;51.078;12.108;2022-10-31T11:57:43;8.57;;;4.10;;
35699;SDS011;21818;51.078;12.108;2022-10-31T12:00:47;11.82;;;4.60;;
35699;SDS011;21818;51.078;12.108;2022-10-31T12:05:49;8.43;;;3.58;;
35699;SDS011;21818;51.078;12.108;2022-10-31T12:08:29;11.30;;;4.40;;
35699;SDS011;21818;51.078;12.108;2022-10-31T12:10:59;6.47;;;3.72;;
35699;SDS011;21818;51.078;12.108;2022-10-31T12:13:33;8.02;;;4.38;;
35699;SDS011;21818;51.078;12.108;2022-10-31T12:16:11;10.00;;;4.85;;
35699;SDS011;21818;51.078;12.108;2022-10-31T12:21:50;5.93;;;3.55;;
35699;SDS011;21818;51.078;12.108;2022-10-31T12:29:50;13.90;;;4.28;;
35699;SDS011;21818;51.078;12.108;2022-10-31T12:32:26;6.20;;;3.70;;
35699;SDS011;21818;51.078;12.108;2022-10-31T12:37:44;11.82;;;4.40;;
35699;SDS011;21818;51.078;12.108;2022-10-31T12:43:17;9.35;;;4.47;;
35699;SDS011;21818;51.078;12.108;2022-10-31T12:53:54;9.43;;;4.10;;
35699;SDS011;21818;51.078;12.108;2022-10-31T12:59:04;10.65;;;4.30;;
35699;SDS011;21818;51.078;12.108;2022-10-31T13:01:40;8.43;;;4.28;;
35699;SDS011;21818;51.078;12.108;2022-10-31T13:06:44;10.02;;;3.97;;
35699;SDS011;21818;51.078;12.108;2022-10-31T13:09:16;6.93;;;3.72;;
35699;SDS011;21818;51.078;12.108;2022-10-31T13:11:46;7.72;;;3.60;;
35699;SDS011;21818;51.078;12.108;2022-10-31T13:17:20;8.27;;;4.43;;
35699;SDS011;21818;51.078;12.108;2022-10-31T13:22:51;7.50;;;4.28;;
35699;SDS011;21818;51.078;12.108;2022-10-31T13:25:28;9.50;;;4.63;;
35699;SDS011;21818;51.078;12.108;2022-10-31T13:27:59;11.43;;;4.80;;
35699;SDS011;21818;51.078;12.108;2022-10-31T13:30:32;13.57;;;4.78;;
35699;SDS011;21818;51.078;12.108;2022-10-31T13:36:09;7.78;;;3.97;;
35699;SDS011;21818;51.078;12.108;2022-10-31T13:41:20;9.50;;;5.63;;
35699;SDS011;21818;51.078;12.108;2022-10-31T13:48:58;13.52;;;5.22;;
35699;SDS011;21818;51.078;12.108;2022-10-31T13:51:26;11.32;;;5.40;;
35699;SDS011;21818;51.078;12.108;2022-10-31T13:56:22;10.07;;;5.72;;
35699;SDS011;21818;51.078;12.108;2022-10-31T14:01:45;13.30;;;5.63;;
35699;SDS011;21818;51.078;12.108;2022-10-31T14:04:17;11.93;;;6.18;;
35699;SDS011;21818;51.078;12.108;2022-10-31T14:06:59;15.15;;;5.80;;
35699;SDS011;21818;51.078;12.108;2022-10-31T14:12:13;13.02;;;5.45;;
35699;SDS011;21818;51.078;12.108;2022-10-31T14:14:51;10.68;;;5.13;;
35699;SDS011;21818;51.078;12.108;2022-10-31T14:17:22;12.27;;;4.50;;
35699;SDS011;21818;51.078;12.108;2022-10-31T14:20:03;19.23;;;7.05;;
35699;SDS011;21818;51.078;12.108;2022-10-31T14:22:47;11.43;;;5.43;;
35699;SDS011;21818;51.078;12.108;2022-10-31T14:25:29;14.13;;;4.93;;
35699;SDS011;21818;51.078;12.108;2022-10-31T14:28:00;9.80;;;5.72;;
35699;SDS011;21818;51.078;12.108;2022-10-31T14:30:29;14.73;;;6.00;;
35699;SDS011;21818;51.078;12.108;2022-10-31T14:32:57;13.02;;;5.43;;
35699;SDS011;21818;51.078;12.108;2022-10-31T14:35:27;13.27;;;5.88;;
35699;SDS011;21818;51.078;12.108;2022-10-31T14:38:05;14.43;;;5.30;;
35699;SDS011;21818;51.078;12.108;2022-10-31T14:41:03;10.82;;;5.38;;
35699;SDS011;21818;51.078;12.108;2022-10-31T14:43:50;12.73;;;5.75;;
35699;SDS011;21818;51.078;12.108;2022-10-31T14:46:39;10.07;;;5.70;;
35699;SDS011;21818;51.078;12.108;2022-10-31T14:49:28;11.90;;;5.53;;
35699;SDS011;21818;51.078;12.108;2022-10-31T14:52:23;14.90;;;6.20;;
35699;SDS011;21818;51.078;12.108;2022-10-31T14:54:50;11.90;;;5.75;;
35699;SDS011;21818;51.078;12.108;2022-10-31T14:57:21;16.67;;;7.70;;
35699;SDS011;21818;51.078;12.108;2022-10-31T14:59:52;20.67;;;7.80;;
35699;SDS011;21818;51.078;12.108;2022-10-31T15:02:26;13.18;;;7.85;;
35699;SDS011;21818;51.078;12.108;2022-10-31T15:04:59;13.23;;;8.38;;
35699;SDS011;21818;51.078;12.108;2022-10-31T15:07:26;18.73;;;9.00;;
35699;SDS011;21818;51.078;12.108;2022-10-31T15:09:59;21.15;;;9.35;;
35699;SDS011;21818;51.078;12.108;2022-10-31T15:12:31;18.42;;;9.60;;
35699;SDS011;21818;51.078;12.108;2022-10-31T15:15:10;20.88;;;9.43;;
35699;SDS011;21818;51.078;12.108;2022-10-31T15:17:41;19.63;;;9.30;;
35699;SDS011;21818;51.078;12.108;2022-10-31T15:20:12;16.30;;;8.55;;
35699;SDS011;21818;51.078;12.108;2022-10-31T15:22:46;22.70;;;10.60;;
35699;SDS011;21818;51.078;12.108;2022-10-31T15:25:20;20.92;;;10.80;;
35699;SDS011;21818;51.078;12.108;2022-10-31T15:27:50;19.75;;;9.32;;
35699;SDS011;21818;51.078;12.108;2022-10-31T15:30:21;18.48;;;9.60;;
35699;SDS011;21818;51.078;12.108;2022-10-31T15:32:51;19.17;;;9.45;;
35699;SDS011;21818;51.078;12.108;2022-10-31T15:35:21;21.88;;;10.80;;
35699;SDS011;21818;51.078;12.108;2022-10-31T15:37:51;21.75;;;9.77;;
35699;SDS011;21818;51.078;12.108;2022-10-31T15:40:18;19.75;;;8.63;;
35699;SDS011;21818;51.078;12.108;2022-10-31T15:43:06;19.70;;;9.90;;
35699;SDS011;21818;51.078;12.108;2022-10-31T15:45:32;21.08;;;9.80;;
35699;SDS011;21818;51.078;12.108;2022-10-31T15:48:00;18.90;;;9.65;;
35699;SDS011;21818;51.078;12.108;2022-10-31T15:50:37;20.30;;;10.68;;
35699;SDS011;21818;51.078;12.108;2022-10-31T15:53:05;20.80;;;10.05;;
35699;SDS011;21818;51.078;12.108;2022-10-31T15:55:46;18.90;;;10.25;;
35699;SDS011;21818;51.078;12.108;2022-10-31T15:58:21;21.27;;;11.52;;
35699;SDS011;21818;51.078;12.108;2022-10-31T16:00:56;20.63;;;10.10;;
35699;SDS011;21818;51.078;12.108;2022-10-31T16:03:42;18.70;;;10.30;;
35699;SDS011;21818;51.078;12.108;2022-10-31T16:06:18;22.02;;;10.68;;
35699;SDS011;21818;51.078;12.108;2022-10-31T16:08:45;20.10;;;10.48;;
35699;SDS011;21818;51.078;12.108;2022-10-31T16:11:15;21.30;;;10.93;;
35699;SDS011;21818;51.078;12.108;2022-10-31T16:13:56;20.10;;;10.35;;
35699;SDS011;21818;51.078;12.108;2022-10-31T16:16:25;23.63;;;11.38;;
35699;SDS011;21818;51.078;12.108;2022-10-31T16:18:51;22.98;;;10.60;;
35699;SDS011;21818;51.078;12.108;2022-10-31T16:21:26;19.15;;;10.02;;
35699;SDS011;21818;51.078;12.108;2022-10-31T16:23:58;25.95;;;12.38;;
35699;SDS011;21818;51.078;12.108;2022-10-31T16:26:26;22.98;;;11.52;;
35699;SDS011;21818;51.078;12.108;2022-10-31T16:28:56;26.15;;;11.90;;
35699;SDS011;21818;51.078;12.108;2022-10-31T16:31:30;21.55;;;10.90;;
35699;SDS011;21818;51.078;12.108;2022-10-31T16:34:02;23.40;;;10.70;;
35699;SDS011;21818;51.078;12.108;2022-10-31T16:36:42;23.25;;;11.75;;
35699;SDS011;21818;51.078;12.108;2022-10-31T16:39:08;23.70;;;11.98;;
35699;SDS011;21818;51.078;12.108;2022-10-31T16:41:35;28.15;;;12.88;;
35699;SDS011;21818;51.078;12.108;2022-10-31T16:44:15;31.00;;;13.32;;
35699;SDS011;21818;51.078;12.108;2022-10-31T16:47:22;32.58;;;12.90;;
35699;SDS011;21818;51.078;12.108;2022-10-31T16:49:42;29.23;;;13.00;;